Moultrie, GA (31776)

8:40 PM EDT on August 22, 2014 (GMT -0400)
City of Moultrie Service Center | Change Station
CLOSE
Current Station
Personal Weather Station
Location: Moultrie, GA
Elevation: 299 ft
Nearby Weather Stations
Active Advisory: Heat Advisory Active Notice: Record Report

Elev 299 ft 31.19 °N, 83.79 °W | Updated 13 minutes ago

Clear
Clear
90.4 °F
Feels Like 101 °F
N
0.0
Wind Variable Wind from WNW
Gusts 0.0 mph

Today
High -- | Low -- °F
--% Chance of Precip.
Yesterday
High -- | Low -- °F
Precip. -- in
7:05 AM 8:10 PM
Waning Crescent, 6% visible
Pressure 30.00 in
Visibility 10.0 miles
Clouds Clear
Heat Index 101 °F
Dew Point 75 °F
Humidity 60%
Rainfall 0.00 in
Snow Depth Not available.
UV 0 out of 12
Pollen 8.20 out of 12
Air Quality Not available.
Flu Activity Not available.
METAR KMGR 230015Z AUTO 00000KT 10SM CLR 31/23 A3000 RMK AO2

More Conditions Fewer Conditions

Pressure 30.00 in
Visibility 10.0 miles
Clouds Clear
Heat Index 101 °F
Dew Point 75 °F
Humidity 60%
Rainfall 0.00 in
Snow Depth Not available.
UV 0 out of 12
Pollen 8.20 out of 12
Air Quality Not available.
Flu Activity Not available.
METAR KMGR 230015Z AUTO 00000KT 10SM CLR 31/23 A3000 RMK AO2

More Conditions Fewer Conditions

10-Day Weather Forecast

Almanac

Astronomy

Aug. 22, 2014 Rise Set
Actual Time 7:05 AM EDT 8:10 PM EDT
Civil Twilight 6:40 AM EDT 8:35 PM EDT
Nautical Twilight 6:10 AM EDT 9:05 PM EDT
Astronomical Twilight 5:39 AM EDT 9:35 PM EDT
Moon 4:31 AM EDT (8/22) 6:14 PM EDT (8/22)
Length of Visible Light 13h 55m
Length of Day
13h 05m
Tomorrow will be 1m 44s shorter.
Waning Crescent, 6% of the Moon is Illuminated
Today
Waning Crescent
Aug 25
New
Sep 2
First Quarter
Sep 8
Full
Sep 15
Last Quarter

Today's Extremes

State Highs State Lows

Community

WunderPhotos

Upload Photos

1,746,326 photos uploaded!

WunderBlogs® & News

Nearby

Snow Depth

Station Depth Elevation
No new snow has been reported.

Earthquake Activity

City Distance Mag. Time & Date
No recent earthquake activity has been reported nearby.
Minimum magnitude displayed is 2.5.

Coastal Water Temperatures

Place Temperature
No Stations Reporting

Nearby Weather Stations